Time;durP1;ratioP1;P1;durP2;ratioP2;P2;SDS_P1;SDS_P2;PMS_P1;PMS_P2;Temp;Humidity;BMP_temperature;BMP_pressure;BME280_temperature;BME280_humidity;BME280_pressure;Samples;Min_cycle;Max_cycle;Signal;HPM_P1;HPM_P2
2022/08/05 00:02:09;;;;;;;6.82;2.42;;;18.00;99.90;;;;;;5019873;28;20132;-76
2022/08/05 00:04:35;;;;;;;8.95;2.95;;;18.00;99.90;;;;;;5023954;28;20042;-75
2022/08/05 00:07:00;;;;;;;6.35;2.28;;;18.00;99.90;;;;;;5024610;28;20048;-76
2022/08/05 00:09:26;;;;;;;9.00;3.28;;;18.00;99.90;;;;;;5024913;28;20141;-76
2022/08/05 00:11:52;;;;;;;7.00;2.97;;;18.00;99.90;;;;;;5021448;28;20053;-75
2022/08/05 00:14:17;;;;;;;5.38;2.22;;;18.00;99.90;;;;;;5011112;28;20042;-76
2022/08/05 00:16:46;;;;;;;6.68;1.48;;;18.00;99.90;;;;;;5007084;28;20416;-74
2022/08/05 00:19:12;;;;;;;5.53;2.75;;;18.10;99.90;;;;;;5009359;28;20382;-75
2022/08/05 00:21:37;;;;;;;7.25;2.60;;;18.00;99.90;;;;;;5026686;28;20102;-74
2022/08/05 00:24:04;;;;;;;3.42;1.60;;;18.00;99.90;;;;;;5025680;28;20760;-76
2022/08/05 00:26:29;;;;;;;7.25;2.08;;;17.90;99.90;;;;;;5026974;28;20131;-76
2022/08/05 00:28:55;;;;;;;7.95;2.80;;;18.00;99.90;;;;;;5025283;28;20829;-75
2022/08/05 00:31:21;;;;;;;3.58;2.50;;;18.00;99.90;;;;;;5027606;28;20037;-77
2022/08/05 00:33:46;;;;;;;6.35;2.75;;;17.80;99.90;;;;;;5027908;28;20041;-76
2022/08/05 00:36:13;;;;;;;8.95;2.38;;;17.90;99.90;;;;;;5008669;28;20405;-76
2022/08/05 00:38:39;;;;;;;5.32;2.35;;;17.90;99.90;;;;;;5028304;28;20080;-76
2022/08/05 00:41:06;;;;;;;21.25;3.72;;;17.80;99.90;;;;;;5027881;28;20088;-76
2022/08/05 00:43:33;;;;;;;5.28;2.28;;;17.90;99.90;;;;;;5019219;28;20052;-76
2022/08/05 00:45:59;;;;;;;4.70;2.15;;;17.90;99.90;;;;;;5027101;28;20037;-76
2022/08/05 00:48:24;;;;;;;4.20;1.60;;;17.90;99.90;;;;;;5026932;28;20057;-75
2022/08/05 00:50:51;;;;;;;4.03;2.20;;;17.90;99.90;;;;;;5026734;28;20068;-75
2022/08/05 00:53:20;;;;;;;4.32;2.10;;;17.80;99.90;;;;;;5027807;28;20048;-76
2022/08/05 00:55:46;;;;;;;3.90;2.25;;;17.80;99.90;;;;;;5028126;28;20041;-76
2022/08/05 00:58:13;;;;;;;4.43;1.90;;;17.70;99.90;;;;;;5024001;28;20107;-76
2022/08/05 01:00:39;;;;;;;5.15;2.08;;;17.80;99.90;;;;;;5024995;28;20701;-76
2022/08/05 01:03:05;;;;;;;6.95;1.83;;;17.80;99.90;;;;;;5026845;28;20045;-74
2022/08/05 01:05:31;;;;;;;7.07;2.20;;;17.80;99.90;;;;;;5027884;28;20439;-75
2022/08/05 01:07:57;;;;;;;10.07;3.63;;;17.70;99.90;;;;;;5025013;28;20061;-77
2022/08/05 01:10:29;;;;;;;5.13;2.20;;;17.70;99.90;;;;;;5026841;28;20101;-75
2022/08/05 01:13:00;;;;;;;7.90;2.33;;;17.80;99.90;;;;;;5024569;28;20143;-75
2022/08/05 01:15:32;;;;;;;13.90;2.85;;;17.70;99.90;;;;;;5025719;28;20056;-75
2022/08/05 01:18:05;;;;;;;7.60;3.10;;;17.70;99.90;;;;;;5026675;28;20088;-75
2022/08/05 01:21:13;;;;;;;6.28;2.03;;;17.80;99.90;;;;;;5026273;28;20041;-75
2022/08/05 01:23:51;;;;;;;6.38;3.00;;;17.80;99.90;;;;;;5032658;28;20153;-75
2022/08/05 01:26:54;;;;;;;6.22;2.42;;;17.70;99.90;;;;;;5026308;28;20061;-75
2022/08/05 01:29:35;;;;;;;4.90;2.58;;;17.70;99.90;;;;;;5007197;28;20053;-75
2022/08/05 01:32:05;;;;;;;5.13;2.40;;;17.70;99.90;;;;;;5026127;28;20109;-76
2022/08/05 01:34:36;;;;;;;4.65;2.10;;;17.70;99.90;;;;;;5026566;28;20084;-76
2022/08/05 01:37:13;;;;;;;4.35;2.60;;;17.70;99.90;;;;;;5026855;28;20033;-76
2022/08/05 01:39:41;;;;;;;5.80;2.78;;;17.70;99.90;;;;;;5027260;28;20289;-75
2022/08/05 01:42:11;;;;;;;2.95;1.73;;;17.70;99.90;;;;;;5025709;28;20132;-75
2022/08/05 01:44:38;;;;;;;5.47;2.38;;;17.70;99.90;;;;;;5025183;28;20501;-75
2022/08/05 01:47:05;;;;;;;4.68;1.65;;;17.70;99.90;;;;;;5026863;28;20041;-76
2022/08/05 01:49:32;;;;;;;4.72;2.20;;;17.70;99.90;;;;;;5025691;28;20150;-75
2022/08/05 01:52:00;;;;;;;4.75;2.35;;;17.70;99.90;;;;;;5025009;28;20049;-75
2022/08/05 01:54:38;;;;;;;5.45;2.25;;;17.60;99.90;;;;;;5037654;23;20109;-76
2022/08/05 01:57:05;;;;;;;6.40;2.55;;;17.60;99.90;;;;;;5039013;28;20056;-76
2022/08/05 01:59:32;;;;;;;4.70;1.80;;;17.50;99.90;;;;;;5028064;28;20041;-76
2022/08/05 02:02:00;;;;;;;10.18;2.33;;;17.50;99.90;;;;;;5045546;28;20056;-76
2022/08/05 02:04:28;;;;;;;6.13;4.25;;;17.60;99.90;;;;;;5045611;28;20048;-76
2022/08/05 02:06:55;;;;;;;5.13;2.33;;;17.60;99.90;;;;;;5044070;28;20171;-76
2022/08/05 02:09:21;;;;;;;6.05;2.53;;;17.50;99.90;;;;;;5046010;28;20556;-76
2022/08/05 02:11:58;;;;;;;5.15;2.80;;;17.40;99.90;;;;;;5033098;28;20124;-76
2022/08/05 02:14:32;;;;;;;9.25;2.70;;;17.50;99.90;;;;;;5039465;28;20076;-74
2022/08/05 02:17:11;;;;;;;6.50;2.50;;;17.50;99.90;;;;;;5039769;28;20064;-75
2022/08/05 02:19:43;;;;;;;7.35;2.70;;;17.40;99.90;;;;;;5026140;28;20141;-75
2022/08/05 02:22:30;;;;;;;4.25;2.22;;;17.40;99.90;;;;;;5046983;28;20053;-74
2022/08/05 02:25:11;;;;;;;8.55;3.15;;;17.50;99.90;;;;;;5039714;28;20057;-74
2022/08/05 02:27:39;;;;;;;7.25;2.45;;;17.50;99.90;;;;;;5043746;28;20051;-75
2022/08/05 02:30:09;;;;;;;2.72;2.08;;;17.40;99.90;;;;;;5044089;28;20376;-75
2022/08/05 02:32:36;;;;;;;11.00;3.03;;;17.40;99.90;;;;;;5044330;28;20056;-75
2022/08/05 02:35:11;;;;;;;6.90;3.50;;;17.40;99.90;;;;;;5044748;28;20045;-74
2022/08/05 02:37:39;;;;;;;3.78;2.60;;;17.40;99.90;;;;;;5044356;28;20045;-74
2022/08/05 02:40:06;;;;;;;6.80;2.88;;;17.40;99.90;;;;;;5041680;28;20045;-74
2022/08/05 02:42:33;;;;;;;6.93;2.80;;;17.30;99.90;;;;;;5045051;28;20437;-74
2022/08/05 02:45:00;;;;;;;3.30;2.28;;;17.30;99.90;;;;;;5044524;28;20045;-74
2022/08/05 02:47:28;;;;;;;4.53;2.20;;;17.40;99.90;;;;;;5045714;28;20057;-75
2022/08/05 02:49:54;;;;;;;4.85;2.55;;;17.40;99.90;;;;;;5045059;28;20048;-75
2022/08/05 02:52:20;;;;;;;2.55;2.28;;;17.30;99.90;;;;;;5043713;28;20057;-75
2022/08/05 02:54:47;;;;;;;6.53;2.63;;;17.40;99.90;;;;;;5039795;28;20045;-74
2022/08/05 02:57:15;;;;;;;3.00;2.35;;;17.40;99.90;;;;;;5044345;28;20483;-75
2022/08/05 02:59:45;;;;;;;6.40;2.25;;;17.40;99.90;;;;;;5044174;28;20059;-74
2022/08/05 03:02:13;;;;;;;6.65;2.95;;;17.30;99.90;;;;;;5044041;28;20487;-74
2022/08/05 03:04:41;;;;;;;7.15;2.90;;;17.30;99.90;;;;;;5043569;28;20049;-74
2022/08/05 03:07:08;;;;;;;5.68;2.30;;;17.40;99.90;;;;;;5041201;28;20080;-75
2022/08/05 03:09:35;;;;;;;8.70;2.90;;;17.40;99.90;;;;;;5036639;28;20101;-74
2022/08/05 03:12:00;;;;;;;10.07;2.05;;;17.30;99.90;;;;;;5025359;28;20099;-75
2022/08/05 03:14:26;;;;;;;5.25;3.08;;;17.20;99.90;;;;;;5025108;28;20459;-74
2022/08/05 03:16:51;;;;;;;5.60;2.72;;;17.30;99.90;;;;;;5044330;28;20067;-74
2022/08/05 03:19:17;;;;;;;4.07;2.75;;;17.10;99.90;;;;;;5045308;28;20419;-74
2022/08/05 03:21:43;;;;;;;5.75;2.65;;;17.00;99.90;;;;;;5045036;28;20067;-74
2022/08/05 03:24:09;;;;;;;3.53;2.38;;;17.20;99.90;;;;;;5037773;28;20111;-74
2022/08/05 03:26:35;;;;;;;5.13;2.28;;;17.10;99.90;;;;;;5042141;28;20052;-74
2022/08/05 03:29:01;;;;;;;6.93;2.90;;;17.20;99.90;;;;;;5044139;28;20052;-75
2022/08/05 03:31:28;;;;;;;4.45;1.90;;;17.20;99.90;;;;;;5027462;28;20095;-74
2022/08/05 03:33:54;;;;;;;10.98;2.50;;;17.30;99.90;;;;;;5023768;28;20046;-74
2022/08/05 03:36:20;;;;;;;7.53;2.20;;;17.20;99.90;;;;;;5040589;28;20048;-75
2022/08/05 03:38:45;;;;;;;7.57;2.15;;;17.20;99.90;;;;;;5039001;28;20508;-75
2022/08/05 03:41:11;;;;;;;4.90;2.20;;;17.30;99.90;;;;;;5025002;28;20073;-75
2022/08/05 03:43:37;;;;;;;4.93;2.00;;;17.20;99.90;;;;;;5040453;28;20099;-75
2022/08/05 03:46:03;;;;;;;7.28;2.80;;;17.30;99.90;;;;;;5035254;28;20087;-75
2022/08/05 03:48:29;;;;;;;10.93;3.67;;;17.30;99.90;;;;;;5043488;28;20045;-75
2022/08/05 03:51:12;;;;;;;6.00;2.80;;;17.30;99.90;;;;;;5035481;28;20068;-74
2022/08/05 03:53:46;;;;;;;3.63;2.63;;;17.20;99.90;;;;;;5029870;28;20041;-74
2022/08/05 03:56:18;;;;;;;7.85;3.00;;;17.20;99.90;;;;;;5040138;28;20053;-74
2022/08/05 03:58:45;;;;;;;6.68;2.78;;;17.20;99.90;;;;;;5048307;28;20045;-74
2022/08/05 04:01:13;;;;;;;8.07;2.92;;;17.20;99.90;;;;;;5046023;28;20045;-74
2022/08/05 04:03:43;;;;;;;3.70;2.45;;;17.10;99.90;;;;;;5049275;28;20102;-74
2022/08/05 04:06:09;;;;;;;4.90;2.15;;;17.10;99.90;;;;;;5037621;28;20045;-74
2022/08/05 04:08:36;;;;;;;4.65;2.80;;;17.10;99.90;;;;;;5028771;28;20037;-75
2022/08/05 04:11:02;;;;;;;4.63;2.40;;;17.20;99.90;;;;;;5028694;28;20435;-75
2022/08/05 04:13:29;;;;;;;3.47;2.60;;;17.00;99.90;;;;;;5028560;28;20407;-75
2022/08/05 04:15:55;;;;;;;4.78;3.00;;;17.10;99.90;;;;;;5041709;28;20048;-75
2022/08/05 04:18:24;;;;;;;5.43;3.00;;;17.10;99.90;;;;;;5047756;28;20142;-75
2022/08/05 04:20:57;;;;;;;4.65;3.00;;;17.00;99.90;;;;;;5047265;28;20055;-75
2022/08/05 04:23:25;;;;;;;6.32;3.15;;;17.00;99.90;;;;;;5031013;28;20045;-75
2022/08/05 04:25:51;;;;;;;6.70;3.63;;;17.00;99.90;;;;;;5037202;28;20047;-74
2022/08/05 04:28:18;;;;;;;4.63;3.42;;;17.00;99.90;;;;;;5051107;28;20483;-73
2022/08/05 04:30:44;;;;;;;4.68;2.58;;;17.10;99.90;;;;;;5048629;28;20093;-75
2022/08/05 04:33:11;;;;;;;3.97;2.88;;;17.00;99.90;;;;;;5050258;28;20045;-74
2022/08/05 04:35:36;;;;;;;4.25;2.90;;;17.00;99.90;;;;;;5043316;28;20102;-73
2022/08/05 04:38:02;;;;;;;4.72;3.20;;;16.90;99.90;;;;;;5030836;28;20045;-74
2022/08/05 04:40:28;;;;;;;5.65;3.17;;;17.00;99.90;;;;;;5038256;28;20040;-74
2022/08/05 04:42:53;;;;;;;8.27;4.00;;;17.00;99.90;;;;;;5047675;28;20114;-75
2022/08/05 04:45:20;;;;;;;4.03;2.53;;;17.00;99.90;;;;;;5032142;28;20037;-75
2022/08/05 04:47:46;;;;;;;10.80;3.40;;;17.00;99.90;;;;;;5048074;28;20044;-75
2022/08/05 04:50:11;;;;;;;11.90;5.18;;;17.00;99.90;;;;;;5047027;28;20040;-74
2022/08/05 04:52:37;;;;;;;5.72;3.30;;;17.00;99.90;;;;;;5031701;28;20575;-74
2022/08/05 04:55:03;;;;;;;5.90;3.38;;;17.10;99.90;;;;;;5039608;28;20470;-74
2022/08/05 04:57:28;;;;;;;9.93;3.22;;;17.00;99.90;;;;;;5046027;28;20473;-75
2022/08/05 04:59:54;;;;;;;4.63;3.42;;;17.00;99.90;;;;;;5046500;28;20102;-74
2022/08/05 05:02:20;;;;;;;10.02;4.60;;;17.10;99.90;;;;;;5046919;28;20048;-74
2022/08/05 05:04:45;;;;;;;6.80;3.03;;;17.10;99.90;;;;;;5062517;28;20052;-74
2022/08/05 05:07:11;;;;;;;5.78;3.40;;;16.90;99.90;;;;;;5043278;28;20048;-74
2022/08/05 05:09:36;;;;;;;7.10;3.53;;;16.90;99.90;;;;;;5047303;28;20037;-75
2022/08/05 05:12:02;;;;;;;8.75;3.58;;;16.90;99.90;;;;;;5046948;28;20781;-74
2022/08/05 05:14:28;;;;;;;6.22;2.88;;;16.90;99.90;;;;;;5042010;28;20123;-74
2022/08/05 05:16:54;;;;;;;3.22;2.88;;;16.90;99.90;;;;;;5046349;28;20523;-75
2022/08/05 05:19:19;;;;;;;8.80;2.70;;;16.90;99.90;;;;;;5047337;28;20701;-76
2022/08/05 05:21:45;;;;;;;4.35;2.92;;;17.10;99.90;;;;;;5033999;28;20456;-75
2022/08/05 05:24:11;;;;;;;7.03;3.63;;;16.90;99.90;;;;;;5042885;28;20106;-75
2022/08/05 05:26:37;;;;;;;3.33;3.00;;;17.00;99.90;;;;;;5046139;28;20156;-75
2022/08/05 05:29:02;;;;;;;5.13;3.13;;;17.00;99.90;;;;;;5046060;28;20128;-76
2022/08/05 05:31:28;;;;;;;4.43;3.08;;;17.00;99.90;;;;;;5061383;28;20123;-75
2022/08/05 05:33:53;;;;;;;5.68;2.80;;;17.00;99.90;;;;;;5034219;28;20382;-76
2022/08/05 05:36:19;;;;;;;4.45;3.28;;;16.90;99.90;;;;;;5031403;28;20049;-75
2022/08/05 05:38:45;;;;;;;6.32;3.78;;;16.90;99.90;;;;;;5042526;28;20049;-76
2022/08/05 05:41:11;;;;;;;4.57;3.45;;;16.80;99.90;;;;;;5037633;28;20041;-76
2022/08/05 05:43:36;;;;;;;5.78;3.03;;;16.70;99.90;;;;;;5045178;28;20422;-76
2022/08/05 05:46:02;;;;;;;4.28;3.22;;;16.70;99.90;;;;;;5046540;28;20467;-76
2022/08/05 05:48:27;;;;;;;4.10;3.35;;;16.80;99.90;;;;;;5039571;28;20088;-75
2022/08/05 05:50:53;;;;;;;5.32;2.92;;;16.80;99.90;;;;;;5026513;28;20110;-75
2022/08/05 05:53:19;;;;;;;4.32;2.63;;;16.80;99.90;;;;;;5053671;28;20045;-75
2022/08/05 05:55:45;;;;;;;7.50;3.13;;;17.00;99.90;;;;;;5046099;28;20053;-75
2022/08/05 05:58:11;;;;;;;3.25;2.75;;;17.10;99.90;;;;;;5044912;28;20056;-75
2022/08/05 06:00:36;;;;;;;6.82;3.72;;;17.00;99.90;;;;;;5049120;28;20371;-75
2022/08/05 06:03:02;;;;;;;3.28;2.53;;;17.10;99.90;;;;;;5042045;28;20041;-75
2022/08/05 06:05:27;;;;;;;3.67;2.78;;;17.20;99.90;;;;;;5033302;28;20067;-75
2022/08/05 06:07:53;;;;;;;3.38;2.47;;;17.30;99.90;;;;;;5045830;28;20465;-75
2022/08/05 06:10:19;;;;;;;10.23;2.65;;;17.30;99.90;;;;;;5043448;28;20053;-75
2022/08/05 06:12:44;;;;;;;8.27;2.65;;;17.40;99.90;;;;;;5039732;28;20032;-74
2022/08/05 06:15:10;;;;;;;5.22;1.95;;;17.50;99.90;;;;;;5043798;28;20068;-75
2022/08/05 06:17:36;;;;;;;4.90;1.70;;;17.60;99.90;;;;;;5043431;28;20044;-75
2022/08/05 06:20:03;;;;;;;8.55;2.10;;;17.60;99.90;;;;;;5034609;28;20045;-73
2022/08/05 06:22:33;;;;;;;3.17;1.92;;;17.80;99.90;;;;;;5044430;28;20086;-75
2022/08/05 06:24:59;;;;;;;3.75;1.85;;;17.80;99.90;;;;;;5054382;28;20068;-74
2022/08/05 06:27:25;;;;;;;2.45;1.20;;;18.00;99.90;;;;;;5026246;28;20120;-73
2022/08/05 06:29:51;;;;;;;3.40;1.10;;;18.00;99.90;;;;;;5024879;28;20050;-73
2022/08/05 06:32:17;;;;;;;16.65;2.53;;;18.00;99.90;;;;;;5038333;28;20044;-73
2022/08/05 06:34:42;;;;;;;3.38;0.80;;;18.10;99.90;;;;;;5026409;28;20052;-73
2022/08/05 06:37:08;;;;;;;3.28;0.80;;;18.10;99.90;;;;;;5027792;28;20041;-73
2022/08/05 06:39:34;;;;;;;4.65;1.40;;;18.20;99.90;;;;;;5026114;28;20825;-74
2022/08/05 06:42:01;;;;;;;0.88;0.60;;;18.20;99.90;;;;;;5029856;28;20040;-74
2022/08/05 06:44:27;;;;;;;3.38;1.02;;;18.40;99.90;;;;;;5045027;28;20469;-72
2022/08/05 06:46:54;;;;;;;3.70;0.82;;;18.40;99.90;;;;;;5041132;28;20103;-74
2022/08/05 06:49:20;;;;;;;2.53;0.60;;;18.40;99.90;;;;;;5037366;28;20066;-74
2022/08/05 06:51:45;;;;;;;3.30;1.23;;;18.40;99.90;;;;;;5039619;28;20120;-73
2022/08/05 06:54:11;;;;;;;1.90;0.40;;;18.50;99.90;;;;;;5043425;28;20037;-74
2022/08/05 06:56:37;;;;;;;4.68;1.27;;;18.60;99.90;;;;;;5045505;28;20110;-73
2022/08/05 06:59:04;;;;;;;2.28;0.60;;;18.90;99.90;;;;;;5043407;28;20041;-73
2022/08/05 07:01:30;;;;;;;2.22;0.80;;;18.70;99.90;;;;;;5040465;28;20037;-73
2022/08/05 07:03:55;;;;;;;3.88;0.82;;;18.80;99.90;;;;;;5025746;28;20373;-73
2022/08/05 07:06:22;;;;;;;2.72;0.60;;;18.80;99.90;;;;;;5025649;28;20492;-73
2022/08/05 07:08:47;;;;;;;2.17;0.70;;;18.90;99.90;;;;;;5041104;28;20070;-73
2022/08/05 07:11:13;;;;;;;1.90;0.70;;;19.00;99.90;;;;;;5025654;28;20037;-72
2022/08/05 07:19:07;;;;;;;3.83;1.10;;;22.30;99.90;;;;;;5059983;28;20127;-72
2022/08/05 07:21:33;;;;;;;2.65;1.15;;;23.40;99.90;;;;;;5044768;28;20158;-74
2022/08/05 07:23:58;;;;;;;18.92;1.73;;;22.20;99.90;;;;;;5044954;28;20037;-73
2022/08/05 07:26:24;;;;;;;1.13;0.57;;;22.70;99.90;;;;;;5041856;28;20044;-73
2022/08/05 07:28:49;;;;;;;5.85;1.08;;;21.90;99.90;;;;;;5057194;28;20398;-74
2022/08/05 07:31:16;;;;;;;4.28;1.10;;;22.90;99.90;;;;;;5032136;28;20506;-74
2022/08/05 07:33:42;;;;;;;3.45;0.60;;;23.20;99.90;;;;;;5041217;28;20045;-73
2022/08/05 07:36:08;;;;;;;1.85;0.63;;;22.50;99.90;;;;;;5043762;28;20064;-73
2022/08/05 07:38:35;;;;;;;3.03;0.98;;;21.60;99.90;;;;;;5040994;28;20037;-73
2022/08/05 07:41:15;;;;;;;5.57;2.13;;;20.80;99.90;;;;;;5042633;28;20116;-73
2022/08/05 07:43:41;;;;;;;1.85;1.13;;;20.80;99.90;;;;;;5036906;28;20037;-74
2022/08/05 07:46:07;;;;;;;1.88;0.50;;;20.90;99.90;;;;;;5041626;28;20048;-73
2022/08/05 07:48:33;;;;;;;3.28;0.50;;;20.60;99.90;;;;;;5043693;28;20063;-72
2022/08/05 07:50:59;;;;;;;3.28;1.75;;;20.90;99.90;;;;;;5043913;28;20127;-73
2022/08/05 07:53:25;;;;;;;1.42;0.73;;;20.90;99.90;;;;;;5033567;28;20068;-73
2022/08/05 07:55:50;;;;;;;8.07;1.15;;;20.90;99.90;;;;;;5032397;28;20669;-73
2022/08/05 07:58:16;;;;;;;2.70;0.80;;;20.70;99.90;;;;;;5040006;28;20357;-73
2022/08/05 08:00:42;;;;;;;2.90;0.70;;;20.20;99.90;;;;;;5040022;28;20051;-73
2022/08/05 08:03:12;;;;;;;3.88;0.70;;;19.90;99.90;;;;;;5042929;28;20037;-73
2022/08/05 08:05:42;;;;;;;3.08;0.50;;;20.10;99.90;;;;;;5042882;28;20114;-73
2022/08/05 08:08:10;;;;;;;2.10;0.65;;;20.30;99.90;;;;;;5033445;28;20045;-74
2022/08/05 08:10:37;;;;;;;1.98;0.40;;;20.20;99.90;;;;;;5040544;28;20083;-72
2022/08/05 08:13:03;;;;;;;4.10;0.73;;;20.30;99.90;;;;;;5039201;28;20052;-73
2022/08/05 08:15:29;;;;;;;3.40;0.57;;;20.70;99.90;;;;;;5038381;28;20506;-72
2022/08/05 08:17:55;;;;;;;2.53;0.57;;;20.90;99.90;;;;;;5038433;28;20132;-73
2022/08/05 08:20:21;;;;;;;1.65;0.70;;;20.40;99.90;;;;;;5035732;28;20112;-73
2022/08/05 08:22:51;;;;;;;2.28;0.30;;;20.50;99.90;;;;;;5039763;28;20044;-72
2022/08/05 08:25:17;;;;;;;1.25;0.52;;;20.40;99.90;;;;;;5044027;28;20044;-72
2022/08/05 08:27:43;;;;;;;1.40;0.38;;;20.70;99.90;;;;;;5043366;28;20404;-73
2022/08/05 08:30:10;;;;;;;0.75;0.22;;;20.60;99.90;;;;;;5042081;28;20120;-73
2022/08/05 08:32:36;;;;;;;1.70;0.32;;;20.70;99.90;;;;;;5041998;28;20040;-72
2022/08/05 08:35:02;;;;;;;1.10;0.35;;;21.00;99.90;;;;;;5042837;28;20029;-73
2022/08/05 08:37:28;;;;;;;2.88;0.70;;;21.20;99.90;;;;;;5040567;28;20049;-72
2022/08/05 08:39:54;;;;;;;3.38;0.45;;;20.90;99.90;;;;;;5044991;28;20044;-72
2022/08/05 08:42:21;;;;;;;2.33;0.60;;;20.50;99.90;;;;;;5030377;28;20041;-74
2022/08/05 08:44:48;;;;;;;2.65;0.30;;;20.60;99.90;;;;;;5026373;28;20091;-72
2022/08/05 08:47:14;;;;;;;1.95;0.90;;;20.70;99.90;;;;;;5030296;28;20048;-73
2022/08/05 08:49:44;;;;;;;0.55;0.22;;;20.60;99.90;;;;;;5028090;28;20045;-73
2022/08/05 08:52:22;;;;;;;3.67;0.32;;;20.20;99.90;;;;;;5027089;28;20041;-72
2022/08/05 08:54:50;;;;;;;0.88;0.43;;;20.30;99.90;;;;;;5027994;28;20355;-72
2022/08/05 08:57:16;;;;;;;4.07;0.70;;;20.60;99.90;;;;;;5061582;28;20053;-73
2022/08/05 08:59:42;;;;;;;1.75;0.40;;;20.80;99.90;;;;;;5046021;28;20049;-72
2022/08/05 09:02:09;;;;;;;2.33;0.43;;;21.20;99.90;;;;;;5046859;28;20569;-73
2022/08/05 09:04:39;;;;;;;1.42;0.50;;;20.60;99.90;;;;;;5046228;28;20036;-73
2022/08/05 09:07:05;;;;;;;2.17;0.37;;;20.40;99.90;;;;;;5041185;28;20133;-73
2022/08/05 09:09:33;;;;;;;4.40;0.70;;;20.70;99.90;;;;;;5027070;28;20268;-73
2022/08/05 09:11:59;;;;;;;0.70;0.40;;;20.90;99.90;;;;;;5026772;28;20038;-72
2022/08/05 09:14:25;;;;;;;1.65;0.50;;;21.30;99.90;;;;;;5029615;28;20079;-74
2022/08/05 09:16:51;;;;;;;4.30;0.70;;;20.90;99.90;;;;;;5026470;28;20041;-73
2022/08/05 09:19:17;;;;;;;0.98;0.20;;;21.00;99.90;;;;;;5030951;28;20092;-72
2022/08/05 09:21:42;;;;;;;5.57;0.82;;;20.70;99.90;;;;;;5027070;28;20073;-72
2022/08/05 09:24:11;;;;;;;7.43;0.50;;;20.80;99.90;;;;;;5027513;28;20150;-73
2022/08/05 09:26:38;;;;;;;2.65;0.28;;;20.80;99.90;;;;;;5046403;28;20124;-73
2022/08/05 09:29:07;;;;;;;1.67;0.30;;;21.00;99.90;;;;;;5045580;28;20080;-72
2022/08/05 09:31:33;;;;;;;1.20;0.32;;;21.10;99.90;;;;;;5046684;28;20120;-73
2022/08/05 09:34:04;;;;;;;2.42;1.23;;;21.40;99.90;;;;;;5043281;28;20037;-73
2022/08/05 09:36:42;;;;;;;5.95;1.75;;;21.10;99.90;;;;;;5045992;28;20068;-72
2022/08/05 09:39:10;;;;;;;2.75;0.45;;;21.40;99.90;;;;;;5045975;28;20052;-73
2022/08/05 09:41:56;;;;;;;1.00;0.20;;;21.40;99.90;;;;;;5046225;28;20037;-72
2022/08/05 09:44:36;;;;;;;0.65;0.20;;;21.30;99.90;;;;;;5046130;28;20091;-73
2022/08/05 09:47:13;;;;;;;1.65;0.20;;;21.20;99.90;;;;;;5045113;28;20059;-73
2022/08/05 09:49:41;;;;;;;1.40;0.40;;;21.10;99.90;;;;;;5035025;28;20076;-73
2022/08/05 09:52:18;;;;;;;5.00;0.20;;;20.90;99.90;;;;;;5025735;28;20049;-71
2022/08/05 09:54:57;;;;;;;7.93;0.85;;;21.20;99.90;;;;;;5042867;28;20053;-72
2022/08/05 09:57:33;;;;;;;4.05;0.32;;;21.20;99.90;;;;;;5026873;28;20044;-72
2022/08/05 10:00:06;;;;;;;2.28;0.20;;;21.20;99.90;;;;;;5041878;28;20087;-71
2022/08/05 10:02:33;;;;;;;0.55;0.20;;;21.20;99.90;;;;;;5044524;28;20499;-71
2022/08/05 10:05:04;;;;;;;0.77;0.22;;;21.30;99.90;;;;;;5038482;28;20048;-72
2022/08/05 10:08:04;;;;;;;1.65;0.30;;;21.30;99.90;;;;;;5037070;28;20573;-70
2022/08/05 10:10:45;;;;;;;0.20;0.10;;;21.30;99.90;;;;;;5020691;28;20061;-70
2022/08/05 10:13:24;;;;;;;1.08;0.30;;;21.50;99.90;;;;;;5033136;28;20068;-72
2022/08/05 10:15:50;;;;;;;0.50;0.15;;;21.60;99.90;;;;;;5035635;28;20043;-69
2022/08/05 10:18:20;;;;;;;0.65;0.10;;;21.60;99.90;;;;;;5057712;28;20040;-71
2022/08/05 10:20:47;;;;;;;4.28;1.30;;;21.70;99.90;;;;;;5043404;28;20092;-70
2022/08/05 10:23:31;;;;;;;0.10;0.10;;;21.90;99.90;;;;;;5040027;28;20053;-71
2022/08/05 10:25:59;;;;;;;0.43;0.10;;;21.80;99.90;;;;;;5035860;28;20451;-72
2022/08/05 10:28:26;;;;;;;0.60;0.20;;;21.50;99.90;;;;;;5042804;28;20049;-71
2022/08/05 10:30:52;;;;;;;2.15;0.25;;;21.80;99.90;;;;;;5047671;28;20068;-71
2022/08/05 10:33:19;;;;;;;0.85;0.20;;;21.50;99.90;;;;;;5042845;28;20041;-69
2022/08/05 10:35:45;;;;;;;0.80;0.20;;;21.60;99.90;;;;;;5037053;28;20043;-69
2022/08/05 10:38:12;;;;;;;0.63;0.30;;;21.50;99.90;;;;;;5035573;28;20132;-69
2022/08/05 10:40:52;;;;;;;2.33;0.22;;;21.70;99.90;;;;;;5042507;28;20041;-69
2022/08/05 10:43:34;;;;;;;1.15;0.25;;;21.30;99.90;;;;;;5032733;28;20052;-68
2022/08/05 10:46:12;;;;;;;0.57;0.08;;;21.50;99.90;;;;;;5043637;28;20049;-69
2022/08/05 10:48:40;;;;;;;5.43;0.30;;;21.40;99.90;;;;;;5059990;28;20123;-69
2022/08/05 10:51:06;;;;;;;3.20;0.17;;;21.70;99.90;;;;;;5045012;28;20072;-74
2022/08/05 10:53:52;;;;;;;1.27;0.30;;;21.80;99.90;;;;;;5043661;28;20087;-71
2022/08/05 10:56:23;;;;;;;1.75;0.47;;;21.50;99.90;;;;;;5045655;28;20053;-71
2022/08/05 10:59:10;;;;;;;1.42;0.50;;;21.80;99.90;;;;;;5031074;28;20080;-72
2022/08/05 11:01:36;;;;;;;1.20;0.10;;;22.20;99.90;;;;;;5028557;28;20041;-71
2022/08/05 11:04:16;;;;;;;3.78;0.73;;;22.10;99.90;;;;;;5031526;28;20407;-71
2022/08/05 11:07:15;;;;;;;1.73;0.22;;;21.30;99.90;;;;;;5039424;28;20529;-70
2022/08/05 11:09:50;;;;;;;0.88;0.13;;;21.20;99.90;;;;;;5032813;28;20060;-70
2022/08/05 11:12:39;;;;;;;2.05;1.25;;;20.90;99.90;;;;;;5042200;28;21117;-71
2022/08/05 11:15:27;;;;;;;1.10;0.17;;;21.10;99.90;;;;;;5043243;28;20526;-71
2022/08/05 11:18:10;;;;;;;1.88;0.30;;;21.30;99.90;;;;;;5040618;28;20128;-71
2022/08/05 11:20:44;;;;;;;2.22;0.30;;;20.90;99.90;;;;;;5041166;28;20119;-71
2022/08/05 11:23:34;;;;;;;0.20;0.10;;;21.40;99.90;;;;;;5023032;28;20486;-71
2022/08/05 11:26:03;;;;;;;2.37;0.10;;;21.60;99.90;;;;;;5040138;28;20088;-70
2022/08/05 11:28:32;;;;;;;0.20;0.00;;;21.70;99.90;;;;;;5037901;28;20465;-71
2022/08/05 11:30:58;;;;;;;1.50;0.20;;;21.40;99.90;;;;;;5057171;28;20055;-71
2022/08/05 11:33:35;;;;;;;1.10;0.38;;;21.50;99.90;;;;;;5044528;28;20688;-71
2022/08/05 11:36:06;;;;;;;1.88;0.20;;;21.40;99.90;;;;;;5044710;28;20049;-72
2022/08/05 11:38:37;;;;;;;3.05;0.55;;;21.30;99.90;;;;;;5044134;28;20048;-77
2022/08/05 11:41:12;;;;;;;1.50;0.30;;;21.40;99.90;;;;;;5043159;28;20041;-73
2022/08/05 11:43:42;;;;;;;1.33;0.20;;;21.10;99.90;;;;;;5050249;28;20045;-73
2022/08/05 11:46:07;;;;;;;0.30;0.20;;;21.00;99.90;;;;;;5037138;28;20524;-72
2022/08/05 11:48:34;;;;;;;0.90;0.20;;;20.80;99.90;;;;;;5044132;28;20075;-72
2022/08/05 11:51:00;;;;;;;2.25;0.30;;;20.60;99.90;;;;;;5044604;28;20144;-73
2022/08/05 11:53:26;;;;;;;1.77;0.30;;;20.60;99.90;;;;;;5044239;28;20040;-73
2022/08/05 11:55:57;;;;;;;0.40;0.13;;;20.90;99.90;;;;;;5044285;28;20052;-74
2022/08/05 11:58:38;;;;;;;0.90;0.20;;;21.40;99.90;;;;;;5033773;28;20050;-73
2022/08/05 12:01:18;;;;;;;1.45;0.80;;;21.30;99.90;;;;;;5035462;28;20041;-73
2022/08/05 12:03:45;;;;;;;0.30;0.17;;;21.20;99.90;;;;;;5044137;28;20060;-73
2022/08/05 12:06:13;;;;;;;4.50;0.32;;;21.70;99.90;;;;;;5044256;28;20041;-73
2022/08/05 12:08:43;;;;;;;2.05;0.47;;;21.50;99.90;;;;;;5044380;28;20044;-70
2022/08/05 12:11:15;;;;;;;0.57;0.20;;;21.30;99.90;;;;;;5058800;28;20092;-73
2022/08/05 12:13:55;;;;;;;1.63;0.20;;;21.20;99.90;;;;;;5045721;28;20506;-73
2022/08/05 12:16:23;;;;;;;1.35;0.20;;;21.00;99.90;;;;;;5046984;28;20040;-73
2022/08/05 12:18:49;;;;;;;5.03;1.35;;;21.00;99.90;;;;;;5048024;28;20131;-74
2022/08/05 12:21:18;;;;;;;0.45;0.20;;;20.80;99.90;;;;;;5048066;28;20049;-72
2022/08/05 12:23:51;;;;;;;3.22;0.75;;;20.70;99.90;;;;;;5047623;28;20387;-71
2022/08/05 12:26:16;;;;;;;2.05;0.30;;;20.90;99.90;;;;;;5048756;28;20041;-72
2022/08/05 12:28:42;;;;;;;3.15;0.28;;;20.70;99.90;;;;;;5046857;28;20491;-71
2022/08/05 12:31:08;;;;;;;2.30;0.30;;;21.20;99.90;;;;;;5045905;28;20627;-72
2022/08/05 12:33:34;;;;;;;2.83;0.32;;;21.30;99.90;;;;;;5047814;28;20033;-72
2022/08/05 12:36:01;;;;;;;0.57;0.10;;;21.00;99.90;;;;;;5047162;28;20380;-72
2022/08/05 12:38:27;;;;;;;1.88;0.30;;;20.90;99.90;;;;;;5046801;28;20045;-72
2022/08/05 12:40:55;;;;;;;3.05;0.30;;;20.80;99.90;;;;;;5047844;28;20091;-72
2022/08/05 12:43:21;;;;;;;1.55;0.20;;;20.60;99.90;;;;;;5030899;28;20060;-73
2022/08/05 12:45:54;;;;;;;2.10;0.20;;;20.80;99.90;;;;;;5060867;28;20029;-71
2022/08/05 12:48:22;;;;;;;0.55;0.20;;;20.70;99.90;;;;;;5048017;28;20075;-72
2022/08/05 12:51:16;;;;;;;0.10;0.10;;;20.60;99.90;;;;;;5048410;28;20049;-73
2022/08/05 12:53:44;;;;;;;2.00;0.57;;;20.70;99.90;;;;;;5047549;28;20124;-72
2022/08/05 12:56:17;;;;;;;0.95;0.10;;;20.60;99.90;;;;;;5045801;28;20454;-72
2022/08/05 12:58:43;;;;;;;0.52;0.28;;;20.60;99.90;;;;;;5027295;28;20111;-72
2022/08/05 13:01:08;;;;;;;2.25;0.30;;;20.80;99.90;;;;;;5041752;28;20064;-72